sensor_id;sensor_type;location;lat;lon;timestamp;pressure;altitude;pressure_sealevel;temperature;humidity
1652;BME280;823;49.028;8.454;2023-03-21T00:02:28;100712.94;;;14.42;48.97
1652;BME280;823;49.028;8.454;2023-03-21T00:07:28;100716.66;;;14.36;49.22
1652;BME280;823;49.028;8.454;2023-03-21T00:12:29;100707.38;;;14.30;49.40
1652;BME280;823;49.028;8.454;2023-03-21T00:17:32;100700.84;;;14.20;49.49
1652;BME280;823;49.028;8.454;2023-03-21T00:22:35;100695.03;;;14.15;49.21
1652;BME280;823;49.028;8.454;2023-03-21T00:27:36;100702.31;;;14.07;49.74
1652;BME280;823;49.028;8.454;2023-03-21T00:32:37;100695.66;;;14.00;50.04
1652;BME280;823;49.028;8.454;2023-03-21T00:37:37;100684.50;;;13.98;50.49
1652;BME280;823;49.028;8.454;2023-03-21T00:42:37;100680.91;;;14.00;50.33
1652;BME280;823;49.028;8.454;2023-03-21T00:47:38;100675.59;;;14.03;50.67
1652;BME280;823;49.028;8.454;2023-03-21T00:52:38;100678.31;;;14.00;50.56
1652;BME280;823;49.028;8.454;2023-03-21T00:57:38;100667.91;;;14.00;51.05
1652;BME280;823;49.028;8.454;2023-03-21T01:02:39;100670.38;;;14.03;51.24
1652;BME280;823;49.028;8.454;2023-03-21T01:07:55;100664.41;;;14.01;50.91
1652;BME280;823;49.028;8.454;2023-03-21T01:12:55;100665.47;;;13.97;50.91
1652;BME280;823;49.028;8.454;2023-03-21T01:17:56;100653.66;;;13.88;50.74
1652;BME280;823;49.028;8.454;2023-03-21T01:22:56;100654.78;;;13.83;51.46
1652;BME280;823;49.028;8.454;2023-03-21T01:27:56;100652.53;;;13.75;51.91
1652;BME280;823;49.028;8.454;2023-03-21T01:32:57;100650.69;;;13.77;51.42
1652;BME280;823;49.028;8.454;2023-03-21T01:37:57;100643.94;;;13.73;51.87
1652;BME280;823;49.028;8.454;2023-03-21T01:42:57;100644.81;;;13.72;51.59
1652;BME280;823;49.028;8.454;2023-03-21T01:47:58;100636.19;;;13.71;52.19
1652;BME280;823;49.028;8.454;2023-03-21T01:52:58;100638.94;;;13.68;52.73
1652;BME280;823;49.028;8.454;2023-03-21T01:58:00;100638.06;;;13.68;52.55
1652;BME280;823;49.028;8.454;2023-03-21T02:03:06;100628.59;;;13.67;52.11
1652;BME280;823;49.028;8.454;2023-03-21T02:08:10;100622.81;;;13.60;52.30
1652;BME280;823;49.028;8.454;2023-03-21T02:13:12;100617.84;;;13.54;52.90
1652;BME280;823;49.028;8.454;2023-03-21T02:18:27;100617.25;;;13.47;52.74
1652;BME280;823;49.028;8.454;2023-03-21T02:23:55;100612.03;;;13.49;52.48
1652;BME280;823;49.028;8.454;2023-03-21T02:29:14;100611.50;;;13.40;52.59
1652;BME280;823;49.028;8.454;2023-03-21T02:34:49;100603.81;;;13.37;51.97
1652;BME280;823;49.028;8.454;2023-03-21T02:45:08;100616.38;;;12.82;54.31
1652;BME280;823;49.028;8.454;2023-03-21T02:50:15;100604.34;;;12.79;53.98
1652;BME280;823;49.028;8.454;2023-03-21T02:55:23;100602.63;;;12.80;54.26
1652;BME280;823;49.028;8.454;2023-03-21T03:00:28;100600.66;;;12.63;54.95
1652;BME280;823;49.028;8.454;2023-03-21T03:05:33;100606.03;;;12.58;55.36
1652;BME280;823;49.028;8.454;2023-03-21T03:21:50;100585.63;;;12.49;55.56
1652;BME280;823;49.028;8.454;2023-03-21T03:26:56;100595.84;;;12.53;55.14
1652;BME280;823;49.028;8.454;2023-03-21T03:32:09;100583.34;;;12.41;55.65
1652;BME280;823;49.028;8.454;2023-03-21T03:37:15;100586.31;;;12.30;55.90
1652;BME280;823;49.028;8.454;2023-03-21T03:42:20;100584.63;;;12.29;55.87
1652;BME280;823;49.028;8.454;2023-03-21T03:47:27;100577.66;;;12.31;55.52
1652;BME280;823;49.028;8.454;2023-03-21T03:52:33;100580.19;;;12.33;55.81
1652;BME280;823;49.028;8.454;2023-03-21T03:57:36;100575.66;;;12.38;55.67
1652;BME280;823;49.028;8.454;2023-03-21T04:02:37;100574.13;;;12.32;55.65
1652;BME280;823;49.028;8.454;2023-03-21T04:07:38;100587.28;;;12.27;55.94
1652;BME280;823;49.028;8.454;2023-03-21T04:12:38;100575.75;;;12.35;55.36
1652;BME280;823;49.028;8.454;2023-03-21T04:17:38;100586.06;;;12.36;54.86
1652;BME280;823;49.028;8.454;2023-03-21T04:22:39;100576.69;;;12.34;55.00
1652;BME280;823;49.028;8.454;2023-03-21T04:27:40;100581.38;;;12.24;55.28
1652;BME280;823;49.028;8.454;2023-03-21T04:32:40;100572.00;;;12.20;55.78
1652;BME280;823;49.028;8.454;2023-03-21T04:37:41;100570.47;;;12.14;55.89
1652;BME280;823;49.028;8.454;2023-03-21T04:42:42;100577.41;;;12.14;55.84
1652;BME280;823;49.028;8.454;2023-03-21T04:47:43;100587.09;;;12.08;55.99
1652;BME280;823;49.028;8.454;2023-03-21T04:52:43;100575.06;;;12.07;56.46
1652;BME280;823;49.028;8.454;2023-03-21T04:57:43;100571.09;;;12.21;56.08
1652;BME280;823;49.028;8.454;2023-03-21T05:02:44;100568.94;;;12.32;55.71
1652;BME280;823;49.028;8.454;2023-03-21T05:07:45;100561.22;;;12.31;55.79
1652;BME280;823;49.028;8.454;2023-03-21T05:12:45;100563.66;;;12.35;55.63
1652;BME280;823;49.028;8.454;2023-03-21T05:17:45;100567.84;;;12.39;55.54
1652;BME280;823;49.028;8.454;2023-03-21T05:22:47;100566.88;;;12.42;55.61
1652;BME280;823;49.028;8.454;2023-03-21T05:27:49;100560.94;;;12.38;55.92
1652;BME280;823;49.028;8.454;2023-03-21T05:32:53;100559.44;;;12.33;55.75
1652;BME280;823;49.028;8.454;2023-03-21T05:37:53;100554.19;;;12.34;56.04
1652;BME280;823;49.028;8.454;2023-03-21T05:42:54;100559.00;;;12.21;56.04
1652;BME280;823;49.028;8.454;2023-03-21T05:47:54;100558.94;;;12.23;56.05
1652;BME280;823;49.028;8.454;2023-03-21T05:52:54;100563.94;;;12.04;56.58
1652;BME280;823;49.028;8.454;2023-03-21T05:57:55;100562.34;;;12.00;56.79
1652;BME280;823;49.028;8.454;2023-03-21T06:02:55;100568.16;;;12.06;56.34
1652;BME280;823;49.028;8.454;2023-03-21T06:07:55;100570.88;;;12.03;56.45
1652;BME280;823;49.028;8.454;2023-03-21T06:12:56;100569.63;;;12.14;56.49
1652;BME280;823;49.028;8.454;2023-03-21T06:17:56;100575.25;;;12.25;56.55
1652;BME280;823;49.028;8.454;2023-03-21T06:22:56;100573.22;;;12.33;56.23
1652;BME280;823;49.028;8.454;2023-03-21T06:27:56;100578.03;;;12.44;56.19
1652;BME280;823;49.028;8.454;2023-03-21T06:32:57;100582.53;;;12.39;57.11
1652;BME280;823;49.028;8.454;2023-03-21T06:37:57;100593.56;;;12.68;56.48
1652;BME280;823;49.028;8.454;2023-03-21T06:42:58;100593.69;;;12.87;56.11
1652;BME280;823;49.028;8.454;2023-03-21T06:47:58;100597.13;;;13.09;54.31
1652;BME280;823;49.028;8.454;2023-03-21T06:52:58;100590.16;;;13.32;52.90
1652;BME280;823;49.028;8.454;2023-03-21T06:57:59;100584.72;;;13.38;52.95
1652;BME280;823;49.028;8.454;2023-03-21T07:03:00;100585.53;;;13.61;52.23
1652;BME280;823;49.028;8.454;2023-03-21T07:08:01;100577.97;;;13.55;51.98
1652;BME280;823;49.028;8.454;2023-03-21T07:13:01;100588.38;;;13.55;51.43
1652;BME280;823;49.028;8.454;2023-03-21T07:18:01;100586.16;;;13.66;51.47
1652;BME280;823;49.028;8.454;2023-03-21T07:23:03;100576.66;;;13.65;50.77
1652;BME280;823;49.028;8.454;2023-03-21T07:28:03;100564.06;;;13.76;50.44
1652;BME280;823;49.028;8.454;2023-03-21T07:33:08;100563.53;;;13.89;51.09
1652;BME280;823;49.028;8.454;2023-03-21T07:38:08;100550.06;;;14.19;49.85
1652;BME280;823;49.028;8.454;2023-03-21T07:43:09;100554.78;;;14.29;49.16
1652;BME280;823;49.028;8.454;2023-03-21T07:48:11;100561.78;;;14.46;48.43
1652;BME280;823;49.028;8.454;2023-03-21T07:53:12;100565.97;;;14.70;48.21
1652;BME280;823;49.028;8.454;2023-03-21T07:58:12;100568.63;;;15.05;46.85
1652;BME280;823;49.028;8.454;2023-03-21T08:03:12;100573.31;;;15.33;46.55
1652;BME280;823;49.028;8.454;2023-03-21T08:08:12;100568.69;;;15.56;45.93
1652;BME280;823;49.028;8.454;2023-03-21T08:13:13;100573.56;;;15.97;44.31
1652;BME280;823;49.028;8.454;2023-03-21T08:18:13;100563.75;;;16.18;44.21
1652;BME280;823;49.028;8.454;2023-03-21T08:23:13;100567.56;;;16.44;43.08
1652;BME280;823;49.028;8.454;2023-03-21T08:28:14;100558.13;;;16.58;42.65
1652;BME280;823;49.028;8.454;2023-03-21T08:33:15;100573.44;;;16.64;42.75
1652;BME280;823;49.028;8.454;2023-03-21T08:38:16;100562.19;;;16.63;42.74
1652;BME280;823;49.028;8.454;2023-03-21T08:43:16;100563.34;;;16.90;41.95
1652;BME280;823;49.028;8.454;2023-03-21T08:48:17;100558.47;;;17.14;41.31
1652;BME280;823;49.028;8.454;2023-03-21T08:53:17;100562.50;;;17.19;41.91
1652;BME280;823;49.028;8.454;2023-03-21T08:58:18;100555.31;;;17.09;41.52
1652;BME280;823;49.028;8.454;2023-03-21T09:03:19;100558.84;;;17.38;41.14
1652;BME280;823;49.028;8.454;2023-03-21T09:08:19;100556.81;;;17.43;40.83
1652;BME280;823;49.028;8.454;2023-03-21T09:13:23;100545.22;;;17.62;39.90
1652;BME280;823;49.028;8.454;2023-03-21T09:18:23;100550.66;;;17.59;40.16
1652;BME280;823;49.028;8.454;2023-03-21T09:23:44;100554.66;;;17.64;40.21
1652;BME280;823;49.028;8.454;2023-03-21T09:28:45;100558.88;;;17.67;39.88
1652;BME280;823;49.028;8.454;2023-03-21T09:33:46;100559.22;;;17.61;40.25
1652;BME280;823;49.028;8.454;2023-03-21T09:38:47;100554.94;;;17.74;39.67
1652;BME280;823;49.028;8.454;2023-03-21T09:49:20;100552.72;;;17.82;39.82
1652;BME280;823;49.028;8.454;2023-03-21T09:54:26;100556.56;;;17.91;40.28
1652;BME280;823;49.028;8.454;2023-03-21T09:59:33;100556.38;;;17.94;39.73
1652;BME280;823;49.028;8.454;2023-03-21T10:04:37;100555.34;;;17.97;39.69
1652;BME280;823;49.028;8.454;2023-03-21T10:09:39;100556.28;;;18.10;40.08
1652;BME280;823;49.028;8.454;2023-03-21T10:14:44;100553.50;;;17.99;39.15
1652;BME280;823;49.028;8.454;2023-03-21T10:19:49;100562.84;;;18.03;39.53
1652;BME280;823;49.028;8.454;2023-03-21T10:24:54;100546.16;;;17.90;40.09
1652;BME280;823;49.028;8.454;2023-03-21T10:29:55;100542.16;;;17.98;39.99
1652;BME280;823;49.028;8.454;2023-03-21T10:34:57;100542.63;;;18.05;40.06
1652;BME280;823;49.028;8.454;2023-03-21T10:39:58;100535.44;;;17.94;39.78
1652;BME280;823;49.028;8.454;2023-03-21T10:44:58;100525.41;;;17.72;40.54
1652;BME280;823;49.028;8.454;2023-03-21T10:50:07;100521.13;;;17.71;40.04
1652;BME280;823;49.028;8.454;2023-03-21T10:55:24;100511.88;;;17.80;40.26
1652;BME280;823;49.028;8.454;2023-03-21T11:00:34;100519.91;;;17.62;39.85
1652;BME280;823;49.028;8.454;2023-03-21T11:05:38;100515.63;;;17.76;40.64
1652;BME280;823;49.028;8.454;2023-03-21T11:15:55;100506.56;;;18.10;38.82
1652;BME280;823;49.028;8.454;2023-03-21T11:21:02;100504.59;;;18.14;39.63
1652;BME280;823;49.028;8.454;2023-03-21T11:26:08;100505.28;;;18.30;38.52
1652;BME280;823;49.028;8.454;2023-03-21T11:31:09;100491.13;;;18.47;38.96
1652;BME280;823;49.028;8.454;2023-03-21T11:41:31;100474.19;;;19.06;37.82
1652;BME280;823;49.028;8.454;2023-03-21T11:46:39;100476.31;;;19.27;36.66
1652;BME280;823;49.028;8.454;2023-03-21T11:56:51;100462.34;;;19.65;37.27
1652;BME280;823;49.028;8.454;2023-03-21T12:07:08;100443.41;;;19.85;36.40
1652;BME280;823;49.028;8.454;2023-03-21T12:43:59;100384.97;;;19.83;35.21
1652;BME280;823;49.028;8.454;2023-03-21T12:49:04;100382.97;;;19.87;35.71
1652;BME280;823;49.028;8.454;2023-03-21T12:54:13;100377.31;;;20.04;34.55
1652;BME280;823;49.028;8.454;2023-03-21T13:00:09;100363.84;;;20.09;33.16
1652;BME280;823;49.028;8.454;2023-03-21T13:04:55;100356.50;;;20.25;33.62
1652;BME280;823;49.028;8.454;2023-03-21T13:09:57;100359.50;;;20.32;33.92
1652;BME280;823;49.028;8.454;2023-03-21T13:15:07;100354.38;;;20.31;33.03
1652;BME280;823;49.028;8.454;2023-03-21T13:20:17;100345.00;;;20.51;32.25
1652;BME280;823;49.028;8.454;2023-03-21T13:25:23;100343.72;;;20.56;33.00
1652;BME280;823;49.028;8.454;2023-03-21T13:30:27;100340.59;;;20.63;32.35
1652;BME280;823;49.028;8.454;2023-03-21T13:35:35;100336.66;;;20.57;33.56
1652;BME280;823;49.028;8.454;2023-03-21T13:40:48;100340.19;;;20.80;33.61
1652;BME280;823;49.028;8.454;2023-03-21T13:45:52;100336.00;;;20.78;32.89
1652;BME280;823;49.028;8.454;2023-03-21T13:51:02;100328.47;;;20.73;32.48
1652;BME280;823;49.028;8.454;2023-03-21T14:01:32;100320.19;;;20.55;32.19
1652;BME280;823;49.028;8.454;2023-03-21T14:06:37;100325.97;;;20.36;32.85
1652;BME280;823;49.028;8.454;2023-03-21T14:11:39;100307.19;;;20.18;32.74
1652;BME280;823;49.028;8.454;2023-03-21T14:16:40;100308.81;;;20.43;33.71
1652;BME280;823;49.028;8.454;2023-03-21T14:21:49;100295.66;;;20.43;32.49
1652;BME280;823;49.028;8.454;2023-03-21T14:26:52;100301.97;;;20.29;32.89
1652;BME280;823;49.028;8.454;2023-03-21T14:31:56;100290.63;;;20.17;32.29
1652;BME280;823;49.028;8.454;2023-03-21T14:36:59;100283.84;;;20.02;32.98
1652;BME280;823;49.028;8.454;2023-03-21T14:42:03;100273.50;;;20.12;32.66
1652;BME280;823;49.028;8.454;2023-03-21T14:47:07;100275.06;;;20.14;32.01
1652;BME280;823;49.028;8.454;2023-03-21T14:52:20;100288.53;;;20.10;32.23
1652;BME280;823;49.028;8.454;2023-03-21T14:57:24;100288.94;;;19.92;32.63
1652;BME280;823;49.028;8.454;2023-03-21T15:02:29;100287.50;;;19.64;31.86
1652;BME280;823;49.028;8.454;2023-03-21T15:07:33;100282.56;;;19.35;31.86
1652;BME280;823;49.028;8.454;2023-03-21T15:12:33;100275.34;;;19.26;29.89
1652;BME280;823;49.028;8.454;2023-03-21T15:17:34;100272.59;;;19.40;29.27
1652;BME280;823;49.028;8.454;2023-03-21T15:22:38;100267.13;;;19.43;31.09
1652;BME280;823;49.028;8.454;2023-03-21T15:27:41;100272.13;;;19.46;29.96
1652;BME280;823;49.028;8.454;2023-03-21T15:32:42;100258.88;;;19.61;31.33
1652;BME280;823;49.028;8.454;2023-03-21T15:37:51;100253.81;;;19.57;31.05
1652;BME280;823;49.028;8.454;2023-03-21T15:43:16;100250.63;;;19.41;31.56
1652;BME280;823;49.028;8.454;2023-03-21T15:48:21;100238.78;;;19.48;32.39
1652;BME280;823;49.028;8.454;2023-03-21T15:53:24;100234.44;;;19.36;32.69
1652;BME280;823;49.028;8.454;2023-03-21T15:58:26;100244.47;;;19.42;32.21
1652;BME280;823;49.028;8.454;2023-03-21T16:03:30;100235.31;;;19.48;32.69
1652;BME280;823;49.028;8.454;2023-03-21T16:08:34;100225.66;;;19.48;33.53
1652;BME280;823;49.028;8.454;2023-03-21T16:13:34;100212.28;;;19.40;33.36
1652;BME280;823;49.028;8.454;2023-03-21T16:18:35;100204.34;;;19.29;32.96
1652;BME280;823;49.028;8.454;2023-03-21T16:23:35;100229.78;;;19.15;32.33
1652;BME280;823;49.028;8.454;2023-03-21T16:28:35;100232.09;;;19.07;33.58
1652;BME280;823;49.028;8.454;2023-03-21T16:33:36;100233.59;;;18.85;33.50
1652;BME280;823;49.028;8.454;2023-03-21T16:38:36;100217.03;;;18.85;34.08
1652;BME280;823;49.028;8.454;2023-03-21T16:43:36;100223.25;;;18.71;35.12
1652;BME280;823;49.028;8.454;2023-03-21T16:48:44;100217.41;;;18.42;37.24
1652;BME280;823;49.028;8.454;2023-03-21T16:53:45;100217.59;;;18.38;36.61
1652;BME280;823;49.028;8.454;2023-03-21T16:58:45;100219.19;;;18.41;36.54
1652;BME280;823;49.028;8.454;2023-03-21T17:03:46;100224.41;;;18.41;36.01
1652;BME280;823;49.028;8.454;2023-03-21T17:08:47;100250.38;;;18.31;36.57
1652;BME280;823;49.028;8.454;2023-03-21T17:13:52;100253.75;;;18.46;36.78
1652;BME280;823;49.028;8.454;2023-03-21T17:18:53;100241.38;;;18.48;36.74
1652;BME280;823;49.028;8.454;2023-03-21T17:23:54;100237.22;;;18.46;37.63
1652;BME280;823;49.028;8.454;2023-03-21T17:28:55;100234.06;;;18.41;36.77
1652;BME280;823;49.028;8.454;2023-03-21T17:33:59;100233.13;;;18.42;36.77
1652;BME280;823;49.028;8.454;2023-03-21T17:38:59;100228.94;;;18.39;36.95
1652;BME280;823;49.028;8.454;2023-03-21T17:44:00;100249.44;;;18.32;36.74
1652;BME280;823;49.028;8.454;2023-03-21T17:49:00;100242.63;;;18.30;37.03
1652;BME280;823;49.028;8.454;2023-03-21T17:54:01;100231.44;;;18.28;37.64
1652;BME280;823;49.028;8.454;2023-03-21T17:59:03;100242.22;;;18.23;37.45
1652;BME280;823;49.028;8.454;2023-03-21T18:04:04;100246.19;;;18.16;37.78
1652;BME280;823;49.028;8.454;2023-03-21T18:09:05;100244.72;;;18.12;38.43
1652;BME280;823;49.028;8.454;2023-03-21T18:14:09;100239.25;;;18.02;38.41
1652;BME280;823;49.028;8.454;2023-03-21T18:19:11;100242.31;;;17.96;38.70
1652;BME280;823;49.028;8.454;2023-03-21T18:24:13;100241.72;;;17.91;39.03
1652;BME280;823;49.028;8.454;2023-03-21T18:29:13;100249.97;;;17.84;39.83
1652;BME280;823;49.028;8.454;2023-03-21T18:34:17;100263.84;;;17.72;39.56
1652;BME280;823;49.028;8.454;2023-03-21T18:39:18;100266.47;;;17.72;40.58
1652;BME280;823;49.028;8.454;2023-03-21T18:44:18;100261.75;;;17.64;40.67
1652;BME280;823;49.028;8.454;2023-03-21T18:49:18;100271.84;;;17.56;40.60
1652;BME280;823;49.028;8.454;2023-03-21T18:54:19;100270.16;;;17.55;41.94
1652;BME280;823;49.028;8.454;2023-03-21T18:59:19;100268.13;;;17.46;41.32
1652;BME280;823;49.028;8.454;2023-03-21T19:04:20;100286.19;;;17.36;41.21
1652;BME280;823;49.028;8.454;2023-03-21T19:09:21;100276.13;;;17.30;41.71
1652;BME280;823;49.028;8.454;2023-03-21T19:14:21;100286.44;;;17.18;42.54
1652;BME280;823;49.028;8.454;2023-03-21T19:19:21;100286.97;;;17.09;43.29
1652;BME280;823;49.028;8.454;2023-03-21T19:24:22;100279.81;;;16.98;43.85
1652;BME280;823;49.028;8.454;2023-03-21T19:29:22;100289.31;;;16.85;43.86
1652;BME280;823;49.028;8.454;2023-03-21T19:34:23;100290.44;;;16.81;44.01
1652;BME280;823;49.028;8.454;2023-03-21T19:39:23;100275.75;;;16.64;44.70
1652;BME280;823;49.028;8.454;2023-03-21T19:44:24;100283.97;;;16.58;44.84
1652;BME280;823;49.028;8.454;2023-03-21T19:49:24;100270.06;;;16.57;45.01
1652;BME280;823;49.028;8.454;2023-03-21T19:54:25;100278.19;;;16.52;44.86
1652;BME280;823;49.028;8.454;2023-03-21T19:59:25;100295.72;;;16.50;44.19
1652;BME280;823;49.028;8.454;2023-03-21T20:04:26;100286.94;;;16.51;45.04
1652;BME280;823;49.028;8.454;2023-03-21T20:09:26;100290.66;;;16.47;45.21
1652;BME280;823;49.028;8.454;2023-03-21T20:14:27;100285.91;;;16.40;45.53
1652;BME280;823;49.028;8.454;2023-03-21T20:19:27;100297.16;;;16.26;46.58
1652;BME280;823;49.028;8.454;2023-03-21T20:24:27;100287.44;;;16.13;46.22
1652;BME280;823;49.028;8.454;2023-03-21T20:29:28;100296.47;;;16.08;46.30
1652;BME280;823;49.028;8.454;2023-03-21T20:34:28;100307.59;;;15.95;47.19
1652;BME280;823;49.028;8.454;2023-03-21T20:39:29;100305.59;;;15.85;48.08
1652;BME280;823;49.028;8.454;2023-03-21T20:44:29;100298.25;;;15.75;48.19
1652;BME280;823;49.028;8.454;2023-03-21T20:49:30;100294.31;;;15.68;48.10
1652;BME280;823;49.028;8.454;2023-03-21T20:54:31;100293.81;;;15.61;48.05
1652;BME280;823;49.028;8.454;2023-03-21T20:59:33;100294.25;;;15.54;47.31
1652;BME280;823;49.028;8.454;2023-03-21T21:04:34;100311.47;;;15.40;48.06
1652;BME280;823;49.028;8.454;2023-03-21T21:09:34;100319.94;;;15.28;48.87
1652;BME280;823;49.028;8.454;2023-03-21T21:14:35;100320.94;;;15.09;49.19
1652;BME280;823;49.028;8.454;2023-03-21T21:19:36;100312.00;;;14.97;49.37
1652;BME280;823;49.028;8.454;2023-03-21T21:24:36;100304.38;;;14.77;50.25
1652;BME280;823;49.028;8.454;2023-03-21T21:29:36;100301.13;;;14.73;49.89
1652;BME280;823;49.028;8.454;2023-03-21T21:34:37;100300.50;;;14.68;50.22
1652;BME280;823;49.028;8.454;2023-03-21T21:39:37;100298.25;;;14.60;50.47
1652;BME280;823;49.028;8.454;2023-03-21T21:44:39;100293.47;;;14.53;50.41
1652;BME280;823;49.028;8.454;2023-03-21T21:49:44;100296.88;;;14.36;50.92
1652;BME280;823;49.028;8.454;2023-03-21T21:54:44;100296.06;;;14.18;51.15
1652;BME280;823;49.028;8.454;2023-03-21T21:59:45;100295.78;;;13.87;51.64
1652;BME280;823;49.028;8.454;2023-03-21T22:04:46;100291.97;;;13.77;52.13
1652;BME280;823;49.028;8.454;2023-03-21T22:09:46;100292.78;;;13.77;52.09
1652;BME280;823;49.028;8.454;2023-03-21T22:14:46;100290.84;;;13.63;51.88
1652;BME280;823;49.028;8.454;2023-03-21T22:19:47;100282.56;;;13.55;52.24
1652;BME280;823;49.028;8.454;2023-03-21T22:24:47;100290.19;;;13.41;52.58
1652;BME280;823;49.028;8.454;2023-03-21T22:29:49;100291.00;;;13.22;53.39
1652;BME280;823;49.028;8.454;2023-03-21T22:34:49;100283.34;;;13.19;53.41
1652;BME280;823;49.028;8.454;2023-03-21T22:39:49;100294.50;;;13.21;53.27
1652;BME280;823;49.028;8.454;2023-03-21T22:44:50;100300.19;;;13.10;52.88
1652;BME280;823;49.028;8.454;2023-03-21T22:49:50;100302.84;;;13.09;53.11
1652;BME280;823;49.028;8.454;2023-03-21T22:54:51;100303.63;;;12.92;54.01
1652;BME280;823;49.028;8.454;2023-03-21T22:59:51;100294.91;;;12.93;54.69
1652;BME280;823;49.028;8.454;2023-03-21T23:04:51;100291.31;;;12.95;53.70
1652;BME280;823;49.028;8.454;2023-03-21T23:09:52;100293.84;;;12.97;53.42
1652;BME280;823;49.028;8.454;2023-03-21T23:14:52;100291.13;;;13.00;53.75
1652;BME280;823;49.028;8.454;2023-03-21T23:19:52;100288.72;;;12.95;53.82
1652;BME280;823;49.028;8.454;2023-03-21T23:24:53;100286.50;;;13.07;53.45
1652;BME280;823;49.028;8.454;2023-03-21T23:29:53;100287.59;;;13.01;53.86
1652;BME280;823;49.028;8.454;2023-03-21T23:34:57;100280.03;;;12.97;53.85
1652;BME280;823;49.028;8.454;2023-03-21T23:39:58;100286.06;;;12.97;54.13
1652;BME280;823;49.028;8.454;2023-03-21T23:44:58;100291.00;;;13.03;54.19
1652;BME280;823;49.028;8.454;2023-03-21T23:49:58;100282.56;;;12.98;54.26
1652;BME280;823;49.028;8.454;2023-03-21T23:54:59;100270.22;;;13.03;54.07
1652;BME280;823;49.028;8.454;2023-03-21T23:59:59;100271.34;;;12.98;53.80
